createdAt,value
2022-12-03T00:00:30.778Z,71.39
2022-12-03T00:02:57.472Z,70.60
2022-12-03T00:05:24.193Z,69.58
2022-12-03T00:07:50.912Z,69.52
2022-12-03T00:10:17.656Z,67.92
2022-12-03T00:12:44.267Z,68.38
2022-12-03T00:15:11.753Z,67.62
2022-12-03T00:17:38.498Z,68.29
2022-12-03T00:20:07.704Z,68.57
2022-12-03T00:22:34.365Z,67.80
2022-12-03T00:25:01.094Z,68.18
2022-12-03T00:27:27.705Z,69.64
2022-12-03T00:29:54.348Z,69.20
2022-12-03T00:32:20.992Z,70.06
2022-12-03T00:34:47.662Z,69.55
2022-12-03T00:37:14.308Z,69.69
2022-12-03T00:39:40.946Z,69.06
2022-12-03T00:42:07.595Z,68.72
2022-12-03T00:44:34.245Z,69.02
2022-12-03T00:47:01.062Z,68.82
2022-12-03T00:49:27.669Z,68.69
2022-12-03T00:51:54.266Z,69.30
2022-12-03T00:54:20.900Z,69.08
2022-12-03T00:56:51.448Z,69.48
2022-12-03T00:59:18.213Z,67.96
2022-12-03T01:01:44.879Z,68.34
2022-12-03T01:04:11.590Z,69.63
2022-12-03T01:06:38.534Z,69.45
2022-12-03T01:09:05.331Z,68.89
2022-12-03T01:11:38.082Z,68.73
2022-12-03T01:14:10.694Z,69.77
2022-12-03T01:16:37.921Z,69.23
2022-12-03T01:19:05.966Z,69.36
2022-12-03T01:21:33.355Z,69.18
2022-12-03T01:24:00.141Z,68.79
2022-12-03T01:26:26.879Z,67.55
2022-12-03T01:28:53.835Z,68.00
2022-12-03T01:31:39.870Z,68.33
2022-12-03T01:34:06.776Z,68.42
2022-12-03T01:36:36.083Z,68.95
2022-12-03T01:39:04.268Z,68.74
2022-12-03T01:41:32.620Z,68.49
2022-12-03T01:44:00.090Z,68.68
2022-12-03T01:46:40.931Z,68.64
2022-12-03T01:49:14.733Z,68.95
2022-12-03T01:51:41.392Z,68.95
2022-12-03T01:54:22.376Z,68.55
2022-12-03T01:56:49.577Z,70.90
2022-12-03T01:59:23.157Z,70.79
2022-12-03T02:01:49.923Z,69.94
2022-12-03T02:04:22.629Z,69.09
2022-12-03T02:06:49.423Z,68.87
2022-12-03T02:09:16.009Z,69.23
2022-12-03T02:11:47.120Z,68.24
2022-12-03T02:14:19.528Z,68.34
2022-12-03T02:16:46.753Z,68.36
2022-12-03T02:19:26.832Z,68.18
2022-12-03T02:21:59.416Z,68.63
2022-12-03T02:24:46.277Z,68.86
2022-12-03T02:27:12.913Z,68.96
2022-12-03T02:29:39.795Z,69.84
2022-12-03T02:32:06.501Z,68.81
2022-12-03T02:34:35.754Z,68.99
2022-12-03T02:37:05.879Z,71.14
2022-12-03T02:39:35.404Z,72.03
2022-12-03T02:42:20.763Z,71.57
2022-12-03T02:44:47.380Z,70.38
2022-12-03T02:47:14.016Z,70.11
2022-12-03T02:49:41.135Z,69.38
2022-12-03T02:52:07.944Z,70.48
2022-12-03T02:54:35.053Z,70.23
2022-12-03T02:57:02.497Z,69.38
2022-12-03T02:59:29.219Z,68.42
2022-12-03T03:01:56.293Z,68.31
2022-12-03T03:04:24.907Z,68.57
2022-12-03T03:06:52.352Z,68.87
2022-12-03T03:09:20.263Z,68.90
2022-12-03T03:11:47.002Z,69.88
2022-12-03T03:14:14.006Z,69.37
2022-12-03T03:16:40.789Z,70.38
2022-12-03T03:19:07.534Z,70.22
2022-12-03T03:21:34.253Z,70.03
2022-12-03T03:24:00.899Z,69.33
2022-12-03T03:26:27.562Z,69.42
2022-12-03T03:28:54.225Z,70.35
2022-12-03T03:31:23.688Z,72.76
2022-12-03T03:33:50.967Z,70.79
2022-12-03T03:36:18.690Z,69.75
2022-12-03T03:38:46.416Z,69.48
2022-12-03T03:41:15.005Z,70.24
2022-12-03T03:43:43.302Z,70.67
2022-12-03T03:46:11.125Z,69.77
2022-12-03T03:48:38.671Z,69.12
2022-12-03T03:51:09.456Z,68.52
2022-12-03T03:53:42.867Z,70.07
2022-12-03T03:56:10.663Z,71.47
2022-12-03T03:58:38.118Z,70.77
2022-12-03T04:01:04.788Z,69.45
2022-12-03T04:03:31.443Z,69.43
2022-12-03T04:05:58.422Z,70.00
2022-12-03T04:08:25.108Z,69.61
2022-12-03T04:11:10.252Z,69.41
2022-12-03T04:13:36.920Z,68.93
2022-12-03T04:16:03.985Z,68.98
2022-12-03T04:18:42.841Z,69.23
2022-12-03T04:21:36.398Z,69.15
2022-12-03T04:24:03.707Z,69.36
2022-12-03T04:26:49.102Z,69.69
2022-12-03T04:29:15.857Z,69.99
2022-12-03T04:32:00.857Z,69.46
2022-12-03T04:35:05.905Z,69.15
2022-12-03T04:37:32.653Z,68.90
2022-12-03T04:39:59.229Z,68.83
2022-12-03T04:42:25.834Z,70.26
2022-12-03T04:44:52.876Z,71.52
2022-12-03T04:47:21.644Z,72.44
2022-12-03T04:49:50.389Z,74.23
2022-12-03T04:52:19.217Z,75.13
2022-12-03T04:54:46.039Z,76.54
2022-12-03T04:57:13.081Z,74.55
2022-12-03T04:59:39.775Z,72.29
2022-12-03T05:02:07.323Z,72.45
2022-12-03T05:04:34.275Z,72.01
2022-12-03T05:07:00.956Z,74.56
2022-12-03T05:09:27.614Z,73.74
2022-12-03T05:11:54.257Z,73.03
2022-12-03T05:14:20.901Z,72.67
2022-12-03T05:16:48.047Z,71.03
2022-12-03T05:19:14.772Z,70.61
2022-12-03T05:21:41.447Z,71.06
2022-12-03T05:24:08.169Z,70.61
2022-12-03T05:26:34.847Z,71.78
2022-12-03T05:29:01.599Z,70.64
2022-12-03T05:31:28.218Z,69.66
2022-12-03T05:33:55.256Z,70.31
2022-12-03T05:36:21.993Z,69.82
2022-12-03T05:38:48.773Z,69.38
2022-12-03T05:41:33.930Z,69.22
2022-12-03T05:44:00.543Z,69.91
2022-12-03T05:46:27.227Z,69.06
2022-12-03T05:48:53.947Z,69.33
2022-12-03T05:51:20.709Z,69.41
2022-12-03T05:53:47.287Z,69.65
2022-12-03T05:56:13.916Z,70.51
2022-12-03T05:58:40.475Z,71.03
2022-12-03T06:01:07.161Z,70.14
2022-12-03T06:03:33.994Z,70.60
2022-12-03T06:06:00.678Z,70.16
2022-12-03T06:08:27.354Z,69.90
2022-12-03T06:10:54.043Z,69.79
2022-12-03T06:13:20.653Z,70.00
2022-12-03T06:15:47.362Z,70.21
2022-12-03T06:18:14.159Z,70.27
2022-12-03T06:20:40.789Z,73.93
2022-12-03T06:23:07.394Z,72.60
2022-12-03T06:25:33.982Z,70.71
2022-12-03T06:28:00.733Z,70.63
2022-12-03T06:30:27.346Z,69.97
2022-12-03T06:32:53.997Z,71.84
2022-12-03T06:35:20.624Z,71.59
2022-12-03T06:37:47.234Z,70.94
2022-12-03T06:40:14.122Z,70.10
2022-12-03T06:42:40.756Z,71.24
2022-12-03T06:45:07.558Z,70.49
2022-12-03T06:47:34.206Z,71.72
2022-12-03T06:50:00.773Z,72.98
2022-12-03T06:52:27.414Z,75.16
2022-12-03T06:54:54.429Z,75.50
2022-12-03T06:57:21.272Z,73.49
2022-12-03T06:59:47.857Z,72.21
2022-12-03T07:02:14.455Z,70.53
2022-12-03T07:04:46.060Z,70.64
2022-12-03T07:07:13.409Z,69.56
2022-12-03T07:09:40.030Z,70.23
2022-12-03T07:12:06.806Z,69.62
2022-12-03T07:14:33.402Z,69.79
2022-12-03T07:17:00.460Z,71.92
2022-12-03T07:19:32.375Z,70.75
2022-12-03T07:21:59.680Z,71.06
2022-12-03T07:24:30.048Z,71.09
2022-12-03T07:27:04.710Z,70.67
2022-12-03T07:29:34.241Z,70.85
2022-12-03T07:32:02.147Z,70.90
2022-12-03T07:34:29.245Z,70.18
2022-12-03T07:36:55.981Z,69.88
2022-12-03T07:39:22.739Z,69.42
2022-12-03T07:41:49.344Z,69.17
2022-12-03T07:44:16.022Z,68.61
2022-12-03T07:46:45.587Z,68.70
2022-12-03T07:49:13.213Z,68.94
2022-12-03T07:51:40.408Z,69.30
2022-12-03T07:54:07.227Z,70.75
2022-12-03T07:56:34.135Z,70.26
2022-12-03T07:59:00.818Z,69.35
2022-12-03T08:01:27.505Z,69.79
2022-12-03T08:03:54.118Z,70.65
2022-12-03T08:06:20.695Z,70.71
2022-12-03T08:08:47.326Z,69.95
2022-12-03T08:11:16.985Z,71.06
2022-12-03T08:13:43.774Z,69.60
2022-12-03T08:16:21.846Z,67.94
2022-12-03T08:18:50.440Z,67.85
2022-12-03T08:21:22.032Z,69.37
2022-12-03T08:23:48.948Z,71.88
2022-12-03T08:26:25.673Z,73.25
2022-12-03T08:28:53.329Z,72.66
2022-12-03T08:31:32.269Z,70.91
2022-12-03T08:34:16.235Z,71.07
2022-12-03T08:36:42.936Z,71.97
2022-12-03T08:39:33.551Z,73.17
2022-12-03T08:42:42.322Z,70.89
2022-12-03T08:45:35.192Z,69.59
2022-12-03T08:48:29.588Z,68.52
2022-12-03T08:50:59.335Z,67.73
2022-12-03T08:53:47.671Z,71.73
2022-12-03T08:56:22.707Z,70.63
2022-12-03T08:59:06.696Z,71.53
2022-12-03T09:01:37.582Z,71.47
2022-12-03T09:04:24.715Z,73.73
2022-12-03T09:06:52.538Z,72.80
2022-12-03T09:09:19.697Z,71.10
2022-12-03T09:11:47.297Z,69.62
2022-12-03T09:14:18.484Z,69.44
2022-12-03T09:16:45.741Z,69.26
2022-12-03T09:19:12.443Z,71.03
2022-12-03T09:21:39.102Z,72.16
2022-12-03T09:24:06.046Z,71.04
2022-12-03T09:26:32.633Z,70.98
2022-12-03T09:28:59.259Z,70.81
2022-12-03T09:31:25.936Z,69.03
2022-12-03T09:33:52.660Z,68.16
2022-12-03T09:36:19.349Z,69.15
2022-12-03T09:38:47.879Z,68.75
2022-12-03T09:41:14.908Z,68.99
2022-12-03T09:46:30.173Z,66.40
2022-12-03T09:48:57.142Z,69.30
2022-12-03T09:51:31.923Z,68.23
2022-12-03T09:54:04.389Z,67.91
2022-12-03T09:56:31.453Z,67.51
2022-12-03T09:58:58.411Z,67.80
2022-12-03T10:01:29.886Z,70.46
2022-12-03T10:03:57.036Z,69.66
2022-12-03T10:06:23.999Z,69.25
2022-12-03T10:08:54.845Z,70.03
2022-12-03T10:11:25.536Z,69.41
2022-12-03T10:13:55.385Z,67.46
2022-12-03T10:16:22.798Z,68.03
2022-12-03T10:18:53.592Z,67.48
2022-12-03T10:21:32.503Z,65.65
2022-12-03T10:24:29.975Z,68.23
2022-12-03T10:27:02.794Z,67.98
2022-12-03T10:29:34.387Z,67.75
2022-12-03T10:32:04.922Z,68.19
2022-12-03T10:34:34.476Z,68.30
2022-12-03T10:37:22.878Z,65.69
2022-12-03T10:40:11.785Z,67.36
2022-12-03T10:42:40.756Z,67.93
2022-12-03T10:45:23.176Z,67.01
2022-12-03T10:48:07.330Z,66.58
2022-12-03T10:50:35.385Z,67.37
2022-12-03T10:53:05.451Z,67.80
2022-12-03T10:55:38.596Z,66.23
2022-12-03T10:58:05.272Z,65.48
2022-12-03T11:00:31.895Z,67.04
2022-12-03T11:02:58.495Z,66.60
2022-12-03T11:05:27.497Z,66.43
2022-12-03T11:07:54.606Z,66.69
2022-12-03T11:10:21.974Z,67.09
2022-12-03T11:13:25.904Z,66.85
2022-12-03T11:15:53.243Z,65.99
2022-12-03T11:18:38.561Z,64.29
2022-12-03T11:21:06.721Z,65.06
2022-12-03T11:23:45.366Z,64.51
2022-12-03T11:26:19.436Z,67.13
2022-12-03T11:28:46.493Z,66.69
2022-12-03T11:31:46.591Z,66.73
2022-12-03T11:34:22.630Z,65.65
2022-12-03T11:37:08.100Z,65.38
2022-12-03T11:39:50.487Z,67.80
2022-12-03T11:42:25.840Z,68.41
2022-12-03T11:45:22.606Z,69.10
2022-12-03T11:47:58.341Z,67.20
2022-12-03T11:50:37.607Z,65.65
2022-12-03T11:53:35.816Z,68.06
2022-12-03T11:56:11.156Z,67.86
2022-12-03T11:58:41.494Z,66.52
2022-12-03T12:01:09.142Z,66.38
2022-12-03T12:03:37.313Z,65.88
2022-12-03T12:06:05.860Z,67.18
2022-12-03T12:08:34.639Z,66.61
2022-12-03T12:11:15.617Z,68.15
2022-12-03T12:13:42.240Z,68.72
2022-12-03T12:16:10.010Z,68.28
2022-12-03T12:18:37.901Z,65.82
2022-12-03T12:21:38.580Z,67.27
2022-12-03T12:24:29.581Z,69.38
2022-12-03T12:26:58.317Z,68.15
2022-12-03T12:29:25.139Z,67.22
2022-12-03T12:32:01.025Z,67.03
2022-12-03T12:34:27.672Z,69.18
2022-12-03T12:37:05.164Z,71.44
2022-12-03T12:39:32.057Z,71.78
2022-12-03T12:41:59.437Z,68.62
2022-12-03T12:44:28.050Z,68.95
2022-12-03T12:46:55.009Z,71.06
2022-12-03T12:49:27.256Z,67.96
2022-12-03T12:51:54.090Z,68.05
2022-12-03T12:54:20.937Z,68.22
2022-12-03T12:56:56.927Z,66.32
2022-12-03T12:59:32.244Z,69.99
2022-12-03T13:02:01.748Z,70.43
2022-12-03T13:04:31.351Z,68.30
2022-12-03T13:06:59.527Z,68.23
2022-12-03T13:09:27.055Z,68.13
2022-12-03T13:12:04.047Z,68.59
2022-12-03T13:14:37.476Z,71.07
2022-12-03T13:17:16.421Z,69.22
2022-12-03T13:19:47.579Z,70.44
2022-12-03T13:22:21.314Z,69.82
2022-12-03T13:24:50.949Z,70.11
2022-12-03T13:27:17.519Z,69.52
2022-12-03T13:29:51.398Z,71.29
2022-12-03T13:32:23.348Z,70.08
2022-12-03T13:34:55.314Z,71.94
2022-12-03T13:37:25.341Z,70.27
2022-12-03T13:39:55.178Z,69.09
2022-12-03T13:42:41.475Z,72.18
2022-12-03T13:45:14.048Z,71.95
2022-12-03T13:47:55.218Z,70.34
2022-12-03T13:50:27.740Z,68.84
2022-12-03T13:52:55.179Z,70.31
2022-12-03T13:55:29.381Z,73.05
2022-12-03T13:57:56.784Z,74.09
2022-12-03T14:05:53.858Z,71.28
2022-12-03T14:08:20.589Z,72.37
2022-12-03T14:10:47.334Z,70.45
2022-12-03T14:13:13.989Z,69.08
2022-12-03T14:15:40.622Z,69.15
2022-12-03T14:18:07.215Z,68.85
2022-12-03T14:20:35.020Z,69.31
2022-12-03T14:23:02.865Z,69.09
2022-12-03T14:25:29.459Z,70.35
2022-12-03T14:27:56.170Z,68.57
2022-12-03T14:30:22.840Z,68.05
2022-12-03T14:32:49.474Z,68.53
2022-12-03T14:35:16.228Z,67.55
2022-12-03T14:37:42.856Z,67.72
2022-12-03T14:40:09.799Z,67.61
2022-12-03T14:42:37.107Z,67.19
2022-12-03T14:45:04.521Z,72.37
2022-12-03T14:47:31.171Z,72.84
2022-12-03T14:49:58.004Z,74.33
2022-12-03T14:52:24.943Z,72.27
2022-12-03T14:54:51.659Z,72.27
2022-12-03T14:57:18.341Z,70.74
2022-12-03T14:59:47.079Z,69.57
2022-12-03T15:02:13.839Z,68.77
2022-12-03T15:04:41.076Z,69.46
2022-12-03T15:07:08.285Z,68.54
2022-12-03T15:09:35.056Z,68.67
2022-12-03T15:12:04.058Z,69.10
2022-12-03T15:14:30.845Z,67.94
2022-12-03T15:16:57.809Z,70.04
2022-12-03T15:19:24.561Z,70.24
2022-12-03T15:21:51.148Z,69.74
2022-12-03T15:24:17.852Z,70.44
2022-12-03T15:26:44.465Z,68.61
2022-12-03T15:29:11.235Z,70.12
2022-12-03T15:31:37.845Z,68.76
2022-12-03T15:34:04.492Z,70.32
2022-12-03T15:36:31.228Z,69.25
2022-12-03T15:38:57.865Z,68.45
2022-12-03T15:41:30.869Z,70.20
2022-12-03T15:44:01.546Z,69.78
2022-12-03T15:46:28.987Z,69.02
2022-12-03T15:48:55.896Z,70.43
2022-12-03T15:51:22.824Z,68.51
2022-12-03T15:53:49.667Z,68.87
2022-12-03T15:56:16.659Z,68.38
2022-12-03T15:58:43.748Z,67.77
2022-12-03T16:01:10.723Z,67.59
2022-12-03T16:03:37.477Z,67.62
2022-12-03T16:06:04.286Z,67.38
2022-12-03T16:08:31.039Z,67.47
2022-12-03T16:10:57.658Z,67.55
2022-12-03T16:13:24.337Z,68.21
2022-12-03T16:15:50.994Z,68.58
2022-12-03T16:18:17.646Z,68.91
2022-12-03T16:20:44.478Z,67.83
2022-12-03T16:23:11.103Z,68.29
2022-12-03T16:25:37.691Z,68.30
2022-12-03T16:28:04.380Z,67.64
2022-12-03T16:30:31.099Z,67.92
2022-12-03T16:33:03.060Z,67.23
2022-12-03T16:35:29.743Z,69.72
2022-12-03T16:38:20.627Z,68.22
2022-12-03T16:40:47.619Z,70.09
2022-12-03T16:43:14.256Z,68.97
2022-12-03T16:46:00.890Z,67.75
2022-12-03T16:48:30.759Z,71.07
2022-12-03T16:50:57.423Z,70.51
2022-12-03T16:53:24.072Z,70.43
2022-12-03T16:55:50.696Z,68.94
2022-12-03T16:58:22.026Z,69.23
2022-12-03T17:00:49.604Z,68.03
2022-12-03T17:03:17.959Z,68.29
2022-12-03T17:05:45.047Z,67.84
2022-12-03T17:08:12.036Z,70.51
2022-12-03T17:10:39.258Z,69.07
2022-12-03T17:13:10.302Z,67.58
2022-12-03T17:15:37.895Z,67.23
2022-12-03T17:18:04.857Z,69.14
2022-12-03T17:20:32.383Z,69.10
2022-12-03T17:22:59.950Z,68.49
2022-12-03T17:25:27.436Z,67.52
2022-12-03T17:27:54.487Z,67.63
2022-12-03T17:30:21.301Z,67.96
2022-12-03T17:32:50.590Z,67.58
2022-12-03T17:35:18.154Z,67.29
2022-12-03T17:37:44.975Z,67.21
2022-12-03T17:40:13.921Z,68.83
2022-12-03T17:42:40.739Z,67.92
2022-12-03T17:45:08.068Z,67.44
2022-12-03T17:47:34.746Z,67.61
2022-12-03T17:50:03.152Z,66.96
2022-12-03T17:52:29.797Z,67.00
2022-12-03T17:55:10.833Z,66.83
2022-12-03T17:57:38.707Z,67.57
2022-12-03T18:00:06.058Z,67.78
2022-12-03T18:02:32.623Z,68.24
2022-12-03T18:04:59.366Z,66.78
2022-12-03T18:07:26.030Z,66.52
2022-12-03T18:09:53.441Z,67.44
2022-12-03T18:12:20.242Z,68.53
2022-12-03T18:14:46.901Z,67.59
2022-12-03T18:17:14.364Z,66.77
2022-12-03T18:19:41.028Z,66.21
2022-12-03T18:22:07.789Z,66.42
2022-12-03T18:24:34.835Z,66.42
2022-12-03T18:27:01.440Z,66.39
2022-12-03T18:29:28.106Z,66.74
2022-12-03T18:31:54.738Z,66.33
2022-12-03T18:34:21.472Z,66.05
2022-12-03T18:36:49.535Z,65.72
2022-12-03T18:39:29.106Z,65.37
2022-12-03T18:41:55.962Z,65.53
2022-12-03T18:44:22.693Z,65.65
2022-12-03T18:46:53.969Z,65.96
2022-12-03T18:49:21.759Z,65.91
2022-12-03T18:51:48.964Z,65.87
2022-12-03T18:54:22.335Z,65.82
2022-12-03T18:56:49.633Z,65.97
2022-12-03T18:59:16.298Z,66.11
2022-12-03T19:01:42.995Z,66.04
2022-12-03T19:04:10.602Z,68.83
2022-12-03T19:06:37.283Z,67.31
2022-12-03T19:09:04.471Z,67.82
2022-12-03T19:11:31.233Z,68.54
2022-12-03T19:13:59.123Z,67.05
2022-12-03T19:16:26.184Z,67.16
2022-12-03T19:18:53.990Z,66.53
2022-12-03T19:21:20.660Z,66.37
2022-12-03T19:24:16.434Z,66.56
2022-12-03T19:26:34.895Z,67.57
2022-12-03T19:29:02.006Z,66.95
2022-12-03T19:31:30.774Z,66.42
2022-12-03T19:33:57.445Z,66.40
2022-12-03T19:36:29.444Z,66.16
2022-12-03T19:38:57.906Z,67.35
2022-12-03T19:41:30.777Z,67.42
2022-12-03T19:43:58.756Z,67.25
2022-12-03T19:46:31.570Z,66.19
2022-12-03T19:48:58.557Z,65.84
2022-12-03T19:51:38.781Z,66.70
2022-12-03T19:54:06.709Z,67.92
2022-12-03T19:56:34.286Z,67.00
2022-12-03T19:59:00.917Z,68.80
2022-12-03T20:01:30.034Z,69.87
2022-12-03T20:03:58.968Z,68.34
2022-12-03T20:06:28.663Z,67.63
2022-12-03T20:09:03.904Z,67.06
2022-12-03T20:11:32.832Z,66.26
2022-12-03T20:14:02.802Z,65.77
2022-12-03T20:16:29.831Z,66.22
2022-12-03T20:18:59.319Z,66.22
2022-12-03T20:21:26.532Z,65.88
2022-12-03T20:23:53.438Z,66.24
2022-12-03T20:26:21.524Z,66.59
2022-12-03T20:28:48.451Z,66.46
2022-12-03T20:31:18.056Z,66.24
2022-12-03T20:33:47.301Z,66.47
2022-12-03T20:36:15.650Z,66.42
2022-12-03T20:38:42.772Z,68.40
2022-12-03T20:41:12.073Z,67.19
2022-12-03T20:43:38.885Z,66.81
2022-12-03T20:46:13.587Z,66.30
2022-12-03T20:48:41.138Z,66.39
2022-12-03T20:51:10.750Z,66.17
2022-12-03T20:53:38.675Z,65.63
2022-12-03T20:56:06.107Z,65.58
2022-12-03T20:58:33.845Z,66.32
2022-12-03T21:01:34.277Z,65.60
2022-12-03T21:04:01.027Z,65.88
2022-12-03T21:06:30.040Z,65.88
2022-12-03T21:08:58.571Z,66.17
2022-12-03T21:11:27.542Z,66.14
2022-12-03T21:13:54.631Z,65.86
2022-12-03T21:16:52.180Z,65.81
2022-12-03T21:19:17.087Z,66.49
2022-12-03T21:21:44.048Z,66.71
2022-12-03T21:24:11.983Z,66.30
2022-12-03T21:26:38.700Z,66.49
2022-12-03T21:29:05.361Z,66.31
2022-12-03T21:31:32.533Z,66.35
2022-12-03T21:33:59.356Z,66.30
2022-12-03T21:36:26.306Z,66.36
2022-12-03T21:38:53.047Z,66.55
2022-12-03T21:41:19.694Z,66.68
2022-12-03T21:43:46.445Z,66.39
2022-12-03T21:47:09.745Z,65.95
2022-12-03T21:49:02.955Z,66.14
2022-12-03T21:51:29.649Z,66.93
2022-12-03T21:53:56.258Z,67.17
2022-12-03T21:56:23.066Z,67.50
2022-12-03T21:58:49.763Z,67.76
2022-12-03T22:01:23.513Z,67.31
2022-12-03T22:03:50.976Z,67.51
2022-12-03T22:06:17.784Z,67.45
2022-12-03T22:08:44.816Z,67.15
2022-12-03T22:11:14.374Z,67.45
2022-12-03T22:13:41.350Z,67.45
2022-12-03T22:16:10.930Z,67.44
2022-12-03T22:18:37.866Z,67.78
2022-12-03T22:21:06.653Z,67.42
2022-12-03T22:23:33.670Z,66.84
2022-12-03T22:26:02.286Z,66.95
2022-12-03T22:28:29.387Z,66.86
2022-12-03T22:30:56.166Z,66.84
2022-12-03T22:33:23.409Z,66.41
2022-12-03T22:36:03.260Z,66.13
2022-12-03T22:38:31.492Z,66.72
2022-12-03T22:40:58.213Z,67.15
2022-12-03T22:43:24.955Z,66.70
2022-12-03T22:45:55.700Z,66.30
2022-12-03T22:48:23.478Z,66.42
2022-12-03T22:50:51.544Z,65.88
2022-12-03T22:53:18.791Z,65.89
2022-12-03T22:55:45.439Z,65.58
2022-12-03T22:58:12.262Z,66.70
2022-12-03T23:00:41.137Z,66.42
2022-12-03T23:03:08.433Z,66.39
2022-12-03T23:05:38.613Z,66.36
2022-12-03T23:08:11.021Z,66.39
2022-12-03T23:10:40.724Z,66.04
2022-12-03T23:13:08.234Z,66.29
2022-12-03T23:15:34.903Z,66.23
2022-12-03T23:18:01.554Z,66.37
2022-12-03T23:20:28.956Z,66.44
2022-12-03T23:22:55.754Z,66.42
2022-12-03T23:25:22.627Z,65.90
2022-12-03T23:27:49.293Z,65.73
2022-12-03T23:30:16.914Z,66.41
2022-12-03T23:32:44.572Z,66.18
2022-12-03T23:35:12.759Z,67.12
2022-12-03T23:37:43.441Z,66.73
2022-12-03T23:40:11.301Z,66.65
2022-12-03T23:42:37.983Z,67.21
2022-12-03T23:45:04.922Z,68.84
2022-12-03T23:47:31.582Z,69.48
2022-12-03T23:49:58.252Z,68.53
2022-12-03T23:52:24.888Z,67.97
2022-12-03T23:54:51.521Z,67.53
2022-12-03T23:57:18.481Z,67.52
2022-12-03T23:59:45.231Z,67.42
